Skip to main content.

Nearby METAR Reports

 

KJYR - York, Nebraska, USA
Distance from station: NW 27mi, 43km
Updated: Sat, 04-Apr-2020 2:35am CDT
Overcast
Overcast
 Wind from NNE
Wind: NNE 9 mph , 15 km/h
Temperature: 25°F , -4°C
Wind Chill: 16°F , -9°C
Dew Point: 23°F , -5°C
Humidity: 93%
Barometer: 30.27 inHg , 1025.1 hPa
Clouds: Overcast
Visibility: 10 miles , 16 km
Cloud details: Overcast 1100 ft
2020/04/04 07:35 KJYR 040735Z AUTO 03008KT 10SM OVC011 M04/M05 A3027 RMK AO2
KLNK - Lincoln, Nebraska, USA
Distance from station: ENE 27mi, 44km
Updated: Sat, 04-Apr-2020 2:10am CDT
Overcast
Overcast
 Wind from N
Wind: N 12 mph , 19 km/h
Temperature: 27°F , -3°C
Wind Chill: 16°F , -9°C
Dew Point: 19°F , -7°C
Humidity: 74%
Barometer: 30.30 inHg , 1026.1 hPa
Clouds: Overcast
Visibility: 10 miles , 16 km
Cloud details: Overcast 1400 ft
2020/04/04 07:10 KLNK 040710Z AUTO 36010KT 10SM OVC014 M03/M07 A3030 RMK AO2 T10281067
 
KBIE - Beatrice Municip, Nebraska, USA
Distance from station: SE 36mi, 58km
Updated: Sat, 04-Apr-2020 2:35am CDT
Overcast
Overcast
 Wind from N
Wind: N 8 mph , 13 km/h
Temperature: 28°F , -2°C
Wind Chill: 20°F , -7°C
Dew Point: 25°F , -4°C
Humidity: 86%
Barometer: 30.27 inHg , 1025.1 hPa
Clouds: Overcast
Visibility: 10 miles , 16 km
Cloud details: Overcast 1300 ft
2020/04/04 07:35 KBIE 040735Z AUTO 01007KT 10SM OVC013 M02/M04 A3027 RMK AO2 T10201043
KHJH - Hebron Muni, Nebraska, USA
Distance from station: SSW 40mi, 64km
Updated: Sat, 04-Apr-2020 2:35am CDT
Overcast
Overcast
 Wind from NNE
Wind: NNE 8 mph , 13 km/h
Temperature: 28°F , -2°C
Wind Chill: 20°F , -7°C
Dew Point: 23°F , -5°C
Humidity: 80%
Barometer: 30.27 inHg , 1025.1 hPa
Clouds: Overcast
Visibility: 10 miles , 16 km
Cloud details: Overcast 1300 ft
2020/04/04 07:35 KHJH 040735Z AUTO 03007KT 10SM OVC013 M02/M05 A3027 RMK AO2 T10221048
 
KAUH - Aurora, Nebraska, USA
Distance from station: WNW 44mi, 70km
Updated: Sat, 04-Apr-2020 2:35am CDT
Overcast
Overcast
 Wind from NNE
Wind: NNE 8 mph , 13 km/h
Temperature: 27°F , -3°C
Wind Chill: 19°F , -7°C
Dew Point: 23°F , -5°C
Humidity: 86%
Barometer: 30.26 inHg , 1024.7 hPa
Clouds: Overcast
Visibility: 10 miles , 16 km
Cloud details: Overcast 1100 ft
2020/04/04 07:35 KAUH 040735Z AUTO 02007KT 10SM OVC011 M03/M05 A3026 RMK AO2 T10321051
KAHQ - Wahoo, Nebraska, USA
Distance from station: NE 51mi, 82km
Updated: Sat, 04-Apr-2020 2:35am CDT
Overcast
Overcast
 Wind from NNE
Wind: NNE 9 mph , 15 km/h
Temperature: 28°F , -2°C
Wind Chill: 19°F , -7°C
Dew Point: 23°F , -5°C
Humidity: 80%
Barometer: 30.30 inHg , 1026.1 hPa
Clouds: Overcast
Visibility: 10 miles , 16 km
Cloud details: Overcast 1300 ft
2020/04/04 07:35 KAHQ 040735Z AUTO 02008KT 10SM OVC013 M02/M05 A3030 RMK AO2 T10251047
 
KOLU - Columbus Muni, Nebraska, USA
Distance from station: N 55mi, 88km
Updated: Sat, 04-Apr-2020 1:56am CDT
Overcast
Overcast
 Wind from NNE
Wind: NNE 6 mph , 9 km/h
Temperature: 25°F , -4°C
Wind Chill: 18°F , -8°C
Dew Point: 21°F , -6°C
Humidity: 86%
Barometer: 30.30 inHg , 1026.1 hPa
Clouds: Overcast
Visibility: 10 miles , 16 km
Cloud details: Overcast 1300 ft
2020/04/04 06:56 KOLU 040656Z AUTO 03005KT 10SM OVC013 M04/M06 A3030 RMK AO2 SLP283 T10391061 FZRANO
KGRI - Grand Island, Nebraska, USA
Distance from station: WNW 61mi, 99km
Updated: Sat, 04-Apr-2020 2:25am CDT
Overcast
Overcast
 Wind from NE
Wind: NE 7 mph , 11 km/h
Temperature: 25°F , -4°C
Wind Chill: 17°F , -8°C
Dew Point: 19°F , -7°C
Humidity: 80%
Barometer: 30.27 inHg , 1025.1 hPa
Clouds: Overcast
Visibility: 10 miles , 16 km
Cloud details: Overcast 900 ft
2020/04/04 07:25 KGRI 040725Z AUTO 05006KT 10SM OVC009 M04/M07 A3027 RMK AO2 T10391067
 
KHSI - Hastings, Nebraska, USA
Distance from station: W 64mi, 103km
Updated: Sat, 04-Apr-2020 2:30am CDT
Overcast
Overcast
 Wind from ENE
Wind: ENE 6 mph , 9 km/h
Temperature: 25°F , -4°C
Wind Chill: 18°F , -8°C
Dew Point: 21°F , -6°C
Humidity: 86%
Barometer: 30.26 inHg , 1024.7 hPa
Clouds: Overcast
Visibility: 10 miles , 16 km
Cloud details: Overcast 900 ft
2020/04/04 07:30 KHSI 040730Z AUTO 06005KT 10SM OVC009 M04/M06 A3026 RMK AO2 T10391061
KFET - Fremont Muni Arp, Nebraska, USA
Distance from station: NNE 66mi, 106km
Updated: Sat, 04-Apr-2020 2:35am CDT
Overcast
Overcast
 Wind from N
Wind: N 7 mph , 11 km/h
Temperature: 28°F , -2°C
Wind Chill: 21°F , -6°C
Dew Point: 25°F , -4°C
Humidity: 86%
Barometer: 30.30 inHg , 1026.1 hPa
Clouds: Overcast
Visibility: 10 miles , 16 km
Cloud details: Overcast 1400 ft
2020/04/04 07:35 KFET 040735Z AUTO 35006KT 10SM OVC014 M02/M04 A3030 RMK AO2 T10211041
 
KMLE - Omaha/Millard, Nebraska, USA
Distance from station: NE 69mi, 110km
Updated: Sat, 04-Apr-2020 2:35am CDT
Overcast
Overcast
 Wind from N
Wind: N 3 mph , 6 km/h
Temperature: 28°F , -2°C
Dew Point: 23°F , -5°C
Humidity: 80%
Barometer: 30.30 inHg , 1026.1 hPa
Clouds: Overcast
Visibility: 10 miles , 16 km
Cloud details: Overcast 1400 ft
2020/04/04 07:35 KMLE 040735Z AUTO 36003KT 10SM OVC014 M02/M05 A3030 RMK AO2 T10171053
KPMV - Plattsmouth Muni, Nebraska, USA
Distance from station: ENE 71mi, 114km
Updated: Sat, 04-Apr-2020 2:35am CDT
Overcast
Overcast
 Wind from NNW
Wind: NNW 8 mph , 13 km/h
Temperature: 28°F , -2°C
Wind Chill: 20°F , -7°C
Dew Point: 23°F , -5°C
Humidity: 80%
Barometer: 30.28 inHg , 1025.4 hPa
Clouds: Overcast
Visibility: 10 miles , 16 km
Cloud details: Overcast 1300 ft
2020/04/04 07:35 KPMV 040735Z AUTO 34007KT 10SM OVC013 M02/M05 A3028 RMK AO2 T10241051
 
KAFK - Nebraska City, Nebraska, USA
Distance from station: E 72mi, 116km
Updated: Sat, 04-Apr-2020 2:35am CDT
Overcast
Overcast
 Wind from NNE
Wind: NNE 13 mph , 20 km/h
Temperature: 28°F , -2°C
Wind Chill: 17°F , -8°C
Dew Point: 27°F , -3°C
Humidity: 93%
Barometer: 30.28 inHg , 1025.4 hPa
Clouds: Overcast
Visibility: 10 miles , 16 km
Cloud details: Overcast 1200 ft
2020/04/04 07:35 KAFK 040735Z AUTO 02011KT 10SM OVC012 M02/M03 A3028 RMK AO2 T10201032
KOFF - Offutt Afb/Belle, Nebraska, USA
Distance from station: ENE 75mi, 121km
Updated: Sat, 04-Apr-2020 1:56am CDT
Overcast
Overcast
 Wind from N
Wind: N 9 mph , 15 km/h
Temperature: 28°F , -2°C
Wind Chill: 19°F , -7°C
Dew Point: 21°F , -6°C
Humidity: 74%
Barometer: 30.29 inHg , 1025.7 hPa
Clouds: Overcast
Visibility: 10 miles , 16 km
Cloud details: Overcast 1300 ft
2020/04/04 06:56 KOFF 040656Z AUTO 01008KT 10SM OVC013 M02/M06 A3029 RMK AO2 SLP275 T10221057 $
 
KBTA - Blair Muni, Nebraska, USA
Distance from station: NE 78mi, 125km
Updated: Sat, 04-Apr-2020 2:35am CDT
Overcast
Overcast
 Wind from N
Wind: N 7 mph , 11 km/h
Temperature: 27°F , -3°C
Wind Chill: 19°F , -7°C
Dew Point: 25°F , -4°C
Humidity: 93%
Barometer: 30.28 inHg , 1025.4 hPa
Clouds: Overcast
Visibility: 10 miles , 16 km
Cloud details: Overcast 1200 ft
2020/04/04 07:35 KBTA 040735Z AUTO 35006KT 10SM OVC012 M03/M04 A3028 RMK AO2 T10261045
KCNK - Concordia, Kansas, USA
Distance from station: SSW 80mi, 129km
Updated: Sat, 04-Apr-2020 2:06am CDT
Mostly Cloudy
Mostly Cloudy
 Wind from N
Wind: N 7 mph , 11 km/h
Temperature: 27°F , -3°C
Wind Chill: 19°F , -7°C
Dew Point: 21°F , -6°C
Humidity: 80%
Barometer: 30.26 inHg , 1024.7 hPa
Clouds: Mostly Cloudy
Visibility: 10 miles , 16 km
Cloud details: Mostly Cloudy 1300 ft
2020/04/04 07:06 KCNK 040706Z AUTO 01006KT 10SM BKN013 M03/M06 A3026 RMK AO2 T10331061 $
 
KOMA - Omaha/Eppley, Nebraska, USA
Distance from station: NE 82mi, 133km
Updated: Sat, 04-Apr-2020 1:52am CDT
Overcast
Overcast
 Wind from NNW
Wind: NNW 13 mph , 20 km/h
Temperature: 28°F , -2°C
Wind Chill: 17°F , -8°C
Dew Point: 23°F , -5°C
Humidity: 80%
Barometer: 30.30 inHg , 1026.1 hPa
Clouds: Overcast
Visibility: 10 miles , 16 km
Cloud details: Overcast 1500 ft
2020/04/04 06:52 KOMA 040652Z 34011KT 10SM OVC015 M02/M05 A3030 RMK AO2 SLP272 T10221050
KBVN - Albion Muni, Nebraska, USA
Distance from station: NNW 86mi, 138km
Updated: Sat, 04-Apr-2020 2:35am CDT
Clear
Clear
 Wind from calm
Wind: Calm
Temperature: 21°F , -6°C
Dew Point: 19°F , -7°C
Humidity: 93%
Barometer: 30.26 inHg , 1024.7 hPa
Clouds: Clear
Visibility: 10 miles , 16 km
2020/04/04 07:35 KBVN 040735Z AUTO 00000KT 10SM CLR M06/M07 A3026 RMK AO2 T10621072
 
KCBF - Council Bluffs, Iowa, USA
Distance from station: ENE 87mi, 139km
Updated: Sat, 04-Apr-2020 2:35am CDT
Overcast
Overcast
 Wind from N
Wind: N 8 mph , 13 km/h
Temperature: 27°F , -3°C
Wind Chill: 19°F , -7°C
Dew Point: 27°F , -3°C
Humidity: 100%
Barometer: 30.26 inHg , 1024.7 hPa
Clouds: Overcast
Visibility: 10 miles , 16 km
Cloud details: Overcast 1200 ft
2020/04/04 07:35 KCBF 040735Z AUTO 01007KT 10SM OVC012 M03/M03 A3026 RMK AO2
KOFK - Norfolk, Nebraska, USA
Distance from station: N 92mi, 148km
Updated: Sat, 04-Apr-2020 1:56am CDT
Clear
Clear
 Wind from NW
Wind: NW 5 mph , 7 km/h
Temperature: 19°F , -7°C
Wind Chill: 12°F , -11°C
Dew Point: 16°F , -9°C
Humidity: 86%
Barometer: 30.29 inHg , 1025.7 hPa
Clouds: Clear
Visibility: 10 miles , 16 km
2020/04/04 06:56 KOFK 040656Z AUTO 32004KT 10SM CLR M07/M09 A3029 RMK AO2 SLP280 T10721094 $

Metar display script from Saratoga-Weather.org